createdAt,value
2019-04-19T00:08:15.327Z,32.80
2019-04-19T00:10:56.437Z,32.70
2019-04-19T00:16:21.567Z,32.80
2019-04-19T00:19:31.591Z,32.80
2019-04-19T00:22:04.744Z,32.80
2019-04-19T00:24:12.134Z,32.80
2019-04-19T00:27:02.618Z,32.80
2019-04-19T00:29:42.579Z,32.80
2019-04-19T00:32:34.910Z,32.80
2019-04-19T00:35:11.682Z,32.80
2019-04-19T00:37:40.674Z,32.90
2019-04-19T00:40:36.845Z,32.90
2019-04-19T00:43:30.973Z,33.00
2019-04-19T00:46:04.827Z,33.00
2019-04-19T00:48:46.482Z,32.90
2019-04-19T00:51:01.007Z,32.80
2019-04-19T00:53:28.724Z,32.70
2019-04-19T00:55:57.516Z,32.70
2019-04-19T00:58:42.685Z,32.70
2019-04-19T01:01:15.553Z,32.70
2019-04-19T01:03:59.621Z,32.60
2019-04-19T01:06:36.975Z,32.60
2019-04-19T01:09:31.293Z,32.60
2019-04-19T01:12:20.690Z,32.80
2019-04-19T01:15:09.331Z,32.80
2019-04-19T01:18:08.442Z,32.80
2019-04-19T01:20:18.783Z,33.00
2019-04-19T01:22:48.924Z,32.90
2019-04-19T01:25:21.323Z,33.00
2019-04-19T01:27:48.837Z,33.10
2019-04-19T01:30:40.257Z,33.00
2019-04-19T01:33:08.620Z,33.00
2019-04-19T01:35:42.178Z,33.10
2019-04-19T01:38:10.124Z,33.10
2019-04-19T01:40:59.148Z,33.10
2019-04-19T01:43:31.761Z,33.10
2019-04-19T01:46:06.535Z,33.10
2019-04-19T01:48:53.965Z,33.20
2019-04-19T01:51:49.093Z,33.30
2019-04-19T01:54:36.026Z,33.30
2019-04-19T01:56:58.268Z,34.10
2019-04-19T01:59:24.843Z,33.40
2019-04-19T02:01:58.124Z,33.40
2019-04-19T02:04:27.753Z,33.50
2019-04-19T02:06:54.895Z,33.60
2019-04-19T02:09:34.793Z,33.60
2019-04-19T02:12:11.670Z,33.70
2019-04-19T02:14:37.626Z,33.80
2019-04-19T02:17:02.568Z,33.80
2019-04-19T02:19:29.723Z,33.80
2019-04-19T02:22:00.098Z,33.80
2019-04-19T02:24:35.434Z,33.90
2019-04-19T02:27:05.021Z,34.00
2019-04-19T02:35:17.173Z,33.30
2019-04-19T02:45:26.519Z,34.20
2019-04-19T02:48:11.009Z,34.10
2019-04-19T02:53:29.920Z,34.40
2019-04-19T02:59:37.339Z,34.40
2019-04-19T03:02:14.814Z,34.50
2019-04-19T03:04:45.573Z,34.50
2019-04-19T03:06:46.441Z,34.60
2019-04-19T03:09:09.230Z,34.70
2019-04-19T03:11:53.347Z,34.60
2019-04-19T03:14:20.629Z,34.70
2019-04-19T03:16:58.233Z,34.80
2019-04-19T03:19:20.913Z,34.80
2019-04-19T03:21:57.940Z,34.90
2019-04-19T03:24:22.502Z,34.90
2019-04-19T03:26:55.456Z,35.00
2019-04-19T03:29:20.636Z,35.00
2019-04-19T03:34:51.190Z,35.20
2019-04-19T03:36:55.502Z,35.10
2019-04-19T03:39:58.679Z,35.00
2019-04-19T03:42:44.837Z,35.10
2019-04-19T03:45:12.794Z,35.10
2019-04-19T03:47:54.702Z,35.20
2019-04-19T03:50:15.551Z,35.40
2019-04-19T03:52:50.159Z,35.30
2019-04-19T03:55:19.161Z,35.40
2019-04-19T03:57:41.289Z,35.50
2019-04-19T04:00:00.474Z,35.60
2019-04-19T04:02:50.012Z,35.50
2019-04-19T04:05:20.721Z,35.50
2019-04-19T04:08:18.116Z,35.60
2019-04-19T04:11:25.350Z,35.60
2019-04-19T04:14:07.319Z,35.70
2019-04-19T04:16:50.679Z,35.80
2019-04-19T04:19:16.562Z,35.80
2019-04-19T04:22:09.654Z,35.80
2019-04-19T04:24:40.334Z,35.80
2019-04-19T04:27:37.838Z,35.90
2019-04-19T04:30:08.107Z,35.80
2019-04-19T04:32:42.866Z,35.90
2019-04-19T04:35:13.510Z,36.00
2019-04-19T04:37:44.748Z,36.00
2019-04-19T04:40:00.026Z,36.00
2019-04-19T04:42:35.660Z,36.10
2019-04-19T04:45:24.690Z,36.10
2019-04-19T04:48:07.797Z,36.20
2019-04-19T04:51:10.746Z,36.20
2019-04-19T04:53:42.796Z,36.20
2019-04-19T04:56:19.454Z,36.20
2019-04-19T04:58:50.778Z,36.20
2019-04-19T05:01:29.137Z,36.10
2019-04-19T05:04:10.442Z,36.10
2019-04-19T05:06:57.761Z,36.30
2019-04-19T05:09:51.543Z,36.30
2019-04-19T05:12:34.393Z,36.20
2019-04-19T05:15:10.066Z,36.40
2019-04-19T05:17:45.935Z,36.30
2019-04-19T05:20:14.324Z,36.30
2019-04-19T05:22:57.863Z,36.40
2019-04-19T05:25:37.596Z,36.20
2019-04-19T05:28:00.764Z,36.80
2019-04-19T05:30:43.157Z,36.40
2019-04-19T05:33:37.773Z,36.40
2019-04-19T05:36:15.576Z,36.20
2019-04-19T05:39:12.715Z,36.30
2019-04-19T05:41:53.087Z,36.30
2019-04-19T05:44:45.100Z,36.40
2019-04-19T05:50:17.075Z,36.40
2019-04-19T05:52:55.344Z,36.40
2019-04-19T05:55:32.600Z,36.40
2019-04-19T05:58:36.087Z,36.30
2019-04-19T06:01:32.873Z,36.30
2019-04-19T06:04:24.724Z,36.40
2019-04-19T06:07:08.408Z,36.30
2019-04-19T06:09:41.044Z,36.20
2019-04-19T06:15:10.348Z,36.30
2019-04-19T06:17:43.694Z,36.20
2019-04-19T06:20:18.244Z,36.30
2019-04-19T06:22:48.655Z,36.40
2019-04-19T06:25:17.852Z,36.50
2019-04-19T06:28:11.587Z,36.60
2019-04-19T06:30:25.042Z,36.70
2019-04-19T06:32:49.479Z,36.80
2019-04-19T06:35:15.373Z,36.80
2019-04-19T06:37:32.561Z,36.70
2019-04-19T06:40:10.590Z,36.60
2019-04-19T06:42:40.771Z,36.70
2019-04-19T06:45:25.350Z,36.80
2019-04-19T06:47:38.942Z,36.60
2019-04-19T06:53:15.198Z,36.80
2019-04-19T06:55:48.576Z,36.80
2019-04-19T06:58:32.795Z,36.80
2019-04-19T07:01:21.654Z,36.90
2019-04-19T07:03:52.070Z,37.10
2019-04-19T07:06:46.579Z,37.20
2019-04-19T07:12:34.074Z,37.10
2019-04-19T07:15:34.024Z,37.10
2019-04-19T07:18:07.503Z,36.90
2019-04-19T07:21:00.926Z,36.60
2019-04-19T07:23:55.973Z,36.50
2019-04-19T07:26:44.638Z,36.40
2019-04-19T07:29:12.831Z,36.20
2019-04-19T07:32:02.401Z,36.10
2019-04-19T07:35:03.571Z,35.90
2019-04-19T07:37:46.385Z,35.80
2019-04-19T07:40:37.085Z,35.90
2019-04-19T07:43:10.707Z,35.80
2019-04-19T07:48:55.411Z,35.60
2019-04-19T07:51:31.798Z,35.60
2019-04-19T07:53:56.842Z,35.20
2019-04-19T07:56:39.133Z,35.10
2019-04-19T07:59:24.603Z,35.10
2019-04-19T08:02:32.233Z,35.00
2019-04-19T08:04:50.934Z,34.80
2019-04-19T08:07:17.235Z,34.70
2019-04-19T08:10:04.175Z,34.60
2019-04-19T08:12:42.803Z,34.60
2019-04-19T08:17:47.221Z,34.40
2019-04-19T08:27:58.619Z,33.90
2019-04-19T08:30:47.742Z,33.90
2019-04-19T08:33:29.750Z,33.80
2019-04-19T08:36:03.351Z,34.00
2019-04-19T08:38:31.148Z,33.50
2019-04-19T08:41:11.778Z,33.50
2019-04-19T08:43:49.221Z,33.30
2019-04-19T08:46:12.127Z,33.00
2019-04-19T08:49:02.920Z,32.90
2019-04-19T08:51:50.648Z,32.80
2019-04-19T08:54:57.628Z,32.60
2019-04-19T08:57:30.823Z,32.40
2019-04-19T09:03:00.398Z,32.00
2019-04-19T09:05:35.699Z,31.80
2019-04-19T09:08:29.545Z,31.60
2019-04-19T09:11:16.645Z,31.30
2019-04-19T09:14:05.925Z,31.00
2019-04-19T09:17:05.664Z,30.80
2019-04-19T09:20:12.282Z,30.60
2019-04-19T09:26:01.047Z,30.20
2019-04-19T09:28:58.354Z,30.00
2019-04-19T09:31:42.079Z,29.80
2019-04-19T09:34:20.053Z,29.50
2019-04-19T09:37:18.580Z,29.40
2019-04-19T09:39:48.818Z,29.30
2019-04-19T09:44:49.739Z,29.10
2019-04-19T09:47:16.223Z,28.90
2019-04-19T09:50:01.659Z,28.70
2019-04-19T09:52:35.581Z,28.50
2019-04-19T09:55:13.530Z,28.40
2019-04-19T09:57:55.824Z,28.40
2019-04-19T10:00:30.047Z,28.20
2019-04-19T10:03:01.445Z,28.00
2019-04-19T10:05:48.694Z,27.90
2019-04-19T10:08:19.497Z,27.80
2019-04-19T10:10:50.190Z,27.70
2019-04-19T10:13:19.681Z,27.60
2019-04-19T10:16:08.239Z,27.40
2019-04-19T10:18:46.872Z,27.30
2019-04-19T10:21:41.731Z,27.40
2019-04-19T10:24:15.049Z,27.30
2019-04-19T10:27:19.384Z,27.30
2019-04-19T10:32:44.593Z,27.00
2019-04-19T10:35:33.727Z,27.00
2019-04-19T10:38:02.444Z,26.80
2019-04-19T10:40:31.430Z,26.60
2019-04-19T10:43:01.122Z,26.60
2019-04-19T10:45:30.672Z,26.50
2019-04-19T10:48:20.000Z,26.30
2019-04-19T10:50:55.805Z,26.20
2019-04-19T10:53:44.241Z,26.10
2019-04-19T10:58:52.535Z,25.80
2019-04-19T11:01:21.207Z,25.80
2019-04-19T11:03:50.755Z,25.70
2019-04-19T11:06:21.760Z,25.60
2019-04-19T11:08:50.778Z,25.40
2019-04-19T11:11:19.759Z,25.40
2019-04-19T11:13:49.896Z,25.30
2019-04-19T11:16:19.432Z,25.20
2019-04-19T11:18:48.216Z,25.60
2019-04-19T11:21:17.816Z,25.00
2019-04-19T11:23:47.593Z,24.50
2019-04-19T11:26:16.994Z,22.90
2019-04-19T11:28:47.046Z,21.30
2019-04-19T11:31:47.717Z,20.20
2019-04-19T11:34:17.742Z,19.20
2019-04-19T11:36:47.535Z,18.50
2019-04-19T11:39:16.950Z,18.00
2019-04-19T11:41:45.629Z,17.20
2019-04-19T11:44:20.918Z,16.70
2019-04-19T11:46:45.932Z,16.20
2019-04-19T11:49:25.235Z,15.90
2019-04-19T11:51:45.862Z,15.50
2019-04-19T11:54:14.595Z,15.20
2019-04-19T11:56:53.229Z,15.20
2019-04-19T11:59:36.998Z,15.10
2019-04-19T12:01:59.882Z,15.00
2019-04-19T12:04:30.104Z,14.90
2019-04-19T12:06:58.910Z,14.90
2019-04-19T12:09:27.548Z,14.80
2019-04-19T12:11:56.270Z,14.80
2019-04-19T12:14:26.891Z,14.80
2019-04-19T12:16:55.362Z,14.70
2019-04-19T12:19:36.178Z,14.50
2019-04-19T12:21:55.611Z,14.30
2019-04-19T12:24:25.039Z,14.30
2019-04-19T12:26:55.578Z,14.20
2019-04-19T12:29:34.061Z,14.30
2019-04-19T12:31:55.915Z,14.10
2019-04-19T12:34:25.815Z,13.90
2019-04-19T12:36:55.155Z,13.90
2019-04-19T12:39:25.148Z,13.80
2019-04-19T12:41:54.106Z,13.80
2019-04-19T12:44:22.866Z,13.80
2019-04-19T12:46:52.875Z,13.90
2019-04-19T12:49:22.685Z,14.00
2019-04-19T12:51:52.252Z,14.10
2019-04-19T12:54:21.024Z,14.10
2019-04-19T12:56:49.937Z,14.30
2019-04-19T12:59:21.256Z,14.40
2019-04-19T13:01:54.188Z,14.70
2019-04-19T13:04:42.882Z,15.00
2019-04-19T13:07:15.116Z,16.00
2019-04-19T13:09:44.692Z,16.10
2019-04-19T13:12:14.572Z,16.70
2019-04-19T13:14:43.888Z,16.90
2019-04-19T13:17:13.100Z,17.10
2019-04-19T13:19:42.951Z,17.00
2019-04-19T13:22:12.312Z,17.00
2019-04-19T13:24:42.574Z,17.10
2019-04-19T13:27:11.633Z,17.20
2019-04-19T13:29:41.510Z,17.60
2019-04-19T13:32:11.530Z,17.90
2019-04-19T13:34:41.191Z,18.10
2019-04-19T13:37:27.379Z,18.20
2019-04-19T13:40:14.460Z,18.30
2019-04-19T13:42:44.691Z,18.50
2019-04-19T13:45:21.048Z,18.40
2019-04-19T13:47:44.935Z,18.50
2019-04-19T13:50:22.000Z,18.60
2019-04-19T13:52:44.375Z,18.80
2019-04-19T13:55:14.728Z,18.90
2019-04-19T13:57:43.901Z,19.10
2019-04-19T14:00:18.639Z,19.20
2019-04-19T14:02:47.874Z,19.30
2019-04-19T14:05:17.816Z,19.50
2019-04-19T14:07:47.143Z,19.60
2019-04-19T14:10:17.101Z,19.60
2019-04-19T14:12:47.552Z,19.70
2019-04-19T14:15:17.156Z,19.60
2019-04-19T14:17:47.626Z,19.70
2019-04-19T14:20:29.646Z,19.80
2019-04-19T14:22:49.647Z,19.80
2019-04-19T14:25:19.114Z,19.70
2019-04-19T14:27:49.069Z,19.80
2019-04-19T14:30:17.858Z,19.80
2019-04-19T14:32:47.542Z,19.90
2019-04-19T14:35:17.302Z,20.00
2019-04-19T14:37:46.564Z,20.10
2019-04-19T14:40:15.820Z,20.20
2019-04-19T14:42:44.621Z,20.30
2019-04-19T14:45:14.220Z,20.40
2019-04-19T14:47:44.605Z,20.40
2019-04-19T14:50:14.827Z,20.50
2019-04-19T14:52:44.412Z,20.70
2019-04-19T14:55:13.723Z,20.70
2019-04-19T14:57:42.883Z,20.80
2019-04-19T15:00:12.762Z,21.00
2019-04-19T15:02:49.783Z,21.10
2019-04-19T15:05:47.717Z,21.30
2019-04-19T15:08:16.832Z,21.40
2019-04-19T15:10:45.828Z,21.70
2019-04-19T15:13:14.816Z,21.80
2019-04-19T15:15:43.758Z,21.90
2019-04-19T15:18:13.105Z,22.00
2019-04-19T15:20:53.922Z,22.20
2019-04-19T15:23:14.240Z,22.50
2019-04-19T15:25:42.998Z,22.70
2019-04-19T15:28:13.113Z,22.90
2019-04-19T15:30:44.715Z,23.20
2019-04-19T15:33:12.263Z,23.30
2019-04-19T15:35:41.611Z,23.40
2019-04-19T15:38:10.326Z,23.40
2019-04-19T15:40:40.297Z,23.60
2019-04-19T15:43:09.095Z,23.70
2019-04-19T15:45:39.004Z,23.80
2019-04-19T15:48:08.963Z,23.90
2019-04-19T15:50:38.132Z,24.00
2019-04-19T15:53:09.165Z,24.10
2019-04-19T15:55:37.889Z,24.00
2019-04-19T15:58:06.682Z,24.10
2019-04-19T16:00:44.226Z,24.20
2019-04-19T16:03:27.818Z,24.20
2019-04-19T16:06:02.239Z,24.20
2019-04-19T16:08:38.705Z,24.30
2019-04-19T16:11:32.679Z,24.40
2019-04-19T16:14:01.912Z,24.40
2019-04-19T16:16:31.197Z,24.50
2019-04-19T16:19:00.493Z,24.60
2019-04-19T16:21:35.537Z,24.70
2019-04-19T16:24:00.938Z,24.80
2019-04-19T16:26:30.873Z,24.90
2019-04-19T16:28:59.962Z,24.90
2019-04-19T16:31:28.916Z,25.00
2019-04-19T16:33:58.588Z,25.10
2019-04-19T16:36:28.896Z,25.20
2019-04-19T16:38:58.787Z,25.20
2019-04-19T16:41:28.971Z,25.30
2019-04-19T16:43:57.847Z,25.30
2019-04-19T16:46:30.209Z,25.50
2019-04-19T16:48:58.268Z,25.40
2019-04-19T16:51:38.786Z,25.50
2019-04-19T16:53:58.197Z,25.60
2019-04-19T16:56:27.800Z,25.60
2019-04-19T16:58:58.461Z,25.70
2019-04-19T17:01:28.275Z,25.70
2019-04-19T17:03:57.549Z,25.70
2019-04-19T17:06:26.662Z,25.90
2019-04-19T17:08:56.755Z,25.90
2019-04-19T17:11:25.958Z,26.00
2019-04-19T17:13:54.638Z,26.00
2019-04-19T17:16:39.014Z,26.10
2019-04-19T17:19:16.907Z,26.10
2019-04-19T17:21:55.576Z,26.20
2019-04-19T17:24:16.898Z,26.30
2019-04-19T17:26:46.827Z,26.30
2019-04-19T17:29:17.033Z,26.40
2019-04-19T17:31:45.810Z,26.50
2019-04-19T17:34:16.117Z,26.50
2019-04-19T17:36:46.298Z,26.60
2019-04-19T17:39:16.977Z,26.60
2019-04-19T17:41:46.295Z,26.70
2019-04-19T17:44:15.520Z,26.80
2019-04-19T17:46:45.013Z,26.90
2019-04-19T17:49:14.818Z,27.00
2019-04-19T17:51:56.180Z,27.00
2019-04-19T17:54:18.651Z,27.10
2019-04-19T17:56:45.431Z,27.20
2019-04-19T17:59:16.865Z,27.30
2019-04-19T18:01:46.310Z,27.30
2019-04-19T18:04:16.660Z,27.40
2019-04-19T18:06:51.142Z,27.50
2019-04-19T18:09:19.348Z,27.50
2019-04-19T18:11:47.321Z,27.60
2019-04-19T18:14:16.305Z,27.80
2019-04-19T18:16:44.984Z,27.80
2019-04-19T18:19:16.788Z,27.90
2019-04-19T18:21:44.350Z,27.90
2019-04-19T18:24:20.030Z,28.00
2019-04-19T18:26:44.360Z,28.00
2019-04-19T18:29:21.442Z,28.10
2019-04-19T18:31:50.374Z,28.20
2019-04-19T18:34:37.780Z,28.20
2019-04-19T18:37:06.963Z,28.30
2019-04-19T18:39:36.171Z,28.40
2019-04-19T18:42:06.076Z,28.40
2019-04-19T18:44:42.071Z,28.50
2019-04-19T18:47:06.833Z,28.60
2019-04-19T18:49:36.076Z,28.60
2019-04-19T18:52:10.651Z,28.70
2019-04-19T18:54:45.476Z,28.70
2019-04-19T18:57:07.832Z,28.80
2019-04-19T18:59:37.063Z,28.80
2019-04-19T19:02:10.501Z,28.90
2019-04-19T19:04:37.021Z,28.90
2019-04-19T19:07:14.363Z,29.00
2019-04-19T19:09:44.791Z,29.10
2019-04-19T19:12:11.041Z,29.10
2019-04-19T19:14:37.594Z,29.20
2019-04-19T19:17:12.114Z,29.20
2019-04-19T19:19:39.575Z,29.30
2019-04-19T19:22:08.539Z,29.40
2019-04-19T19:24:58.665Z,29.50
2019-04-19T19:27:15.249Z,29.50
2019-04-19T19:29:40.386Z,29.60
2019-04-19T19:32:14.107Z,29.60
2019-04-19T19:34:41.763Z,29.70
2019-04-19T19:37:14.532Z,29.80
2019-04-19T19:39:46.851Z,29.80
2019-04-19T19:42:41.602Z,29.90
2019-04-19T19:44:52.592Z,29.90
2019-04-19T19:48:01.283Z,29.90
2019-04-19T19:52:56.437Z,30.00
2019-04-19T19:55:18.699Z,30.10
2019-04-19T19:57:46.549Z,30.10
2019-04-19T20:00:15.833Z,30.20
2019-04-19T20:02:45.518Z,30.20
2019-04-19T20:05:12.033Z,30.30
2019-04-19T20:07:43.190Z,30.40
2019-04-19T20:10:11.979Z,30.40
2019-04-19T20:12:43.450Z,30.40
2019-04-19T20:15:12.624Z,30.50
2019-04-19T20:17:45.188Z,30.60
2019-04-19T20:20:12.084Z,30.70
2019-04-19T20:22:44.400Z,30.70
2019-04-19T20:25:25.340Z,30.70
2019-04-19T20:27:47.299Z,30.90
2019-04-19T20:30:12.310Z,30.90
2019-04-19T20:32:44.787Z,30.90
2019-04-19T20:35:17.617Z,31.00
2019-04-19T20:37:42.198Z,31.10
2019-04-19T20:40:15.621Z,31.10
2019-04-19T20:43:07.537Z,31.20
2019-04-19T20:45:26.456Z,31.20
2019-04-19T20:47:49.275Z,31.20
2019-04-19T20:50:24.323Z,31.30
2019-04-19T20:52:54.906Z,31.30
2019-04-19T20:55:35.592Z,31.40
2019-04-19T20:58:03.377Z,31.50
2019-04-19T21:00:38.802Z,31.60
2019-04-19T21:03:08.114Z,31.60
2019-04-19T21:05:42.579Z,31.70
2019-04-19T21:08:11.214Z,31.70
2019-04-19T21:10:39.215Z,31.80
2019-04-19T21:13:12.162Z,31.80
2019-04-19T21:15:40.570Z,31.90
2019-04-19T21:18:16.063Z,31.90
2019-04-19T21:20:40.559Z,32.00
2019-04-19T21:23:17.891Z,32.00
2019-04-19T21:25:46.433Z,32.10
2019-04-19T21:28:10.500Z,32.10
2019-04-19T21:30:48.260Z,32.20
2019-04-19T21:33:13.415Z,32.30
2019-04-19T21:35:49.549Z,32.30
2019-04-19T21:38:17.679Z,32.40
2019-04-19T21:40:44.947Z,32.40
2019-04-19T21:43:14.886Z,32.50
2019-04-19T21:45:48.420Z,32.50
2019-04-19T21:48:18.043Z,32.50
2019-04-19T21:50:48.734Z,32.60
2019-04-19T21:53:16.567Z,32.70
2019-04-19T21:55:54.090Z,32.70
2019-04-19T21:58:20.135Z,32.80
2019-04-19T22:01:06.018Z,32.80
2019-04-19T22:03:30.733Z,32.90
2019-04-19T22:06:08.291Z,32.90
2019-04-19T22:08:34.930Z,33.00
2019-04-19T22:11:04.591Z,33.00
2019-04-19T22:13:39.071Z,33.00
2019-04-19T22:16:08.559Z,33.10
2019-04-19T22:18:39.706Z,33.20
2019-04-19T22:21:08.848Z,33.20
2019-04-19T22:23:41.865Z,33.30
2019-04-19T22:26:21.188Z,33.30
2019-04-19T22:28:39.553Z,33.20
2019-04-19T22:31:10.384Z,33.20
2019-04-19T22:33:40.700Z,33.20
2019-04-19T22:36:10.736Z,33.30
2019-04-19T22:38:42.481Z,33.30
2019-04-19T22:41:15.137Z,33.40
2019-04-19T22:43:46.731Z,33.40
2019-04-19T22:46:17.054Z,33.50
2019-04-19T22:48:54.444Z,33.40
2019-04-19T22:51:18.905Z,33.60
2019-04-19T22:53:48.522Z,33.60
2019-04-19T22:56:28.100Z,33.60
2019-04-19T22:58:51.574Z,33.70
2019-04-19T23:01:29.985Z,33.70
2019-04-19T23:04:09.839Z,33.80
2019-04-19T23:06:38.608Z,33.90
2019-04-19T23:09:10.762Z,33.90
2019-04-19T23:11:39.564Z,33.90
2019-04-19T23:14:09.404Z,34.00
2019-04-19T23:16:45.697Z,34.00
2019-04-19T23:19:12.380Z,34.00
2019-04-19T23:21:41.943Z,34.10
2019-04-19T23:24:12.313Z,34.10
2019-04-19T23:27:00.614Z,34.10
2019-04-19T23:29:17.833Z,34.20
2019-04-19T23:31:46.217Z,34.20
2019-04-19T23:34:14.416Z,34.20
2019-04-19T23:36:50.799Z,34.40
2019-04-19T23:39:21.135Z,34.40
2019-04-19T23:41:51.040Z,34.50
2019-04-19T23:44:23.167Z,35.20
2019-04-19T23:46:56.893Z,34.60
2019-04-19T23:49:22.741Z,34.70
2019-04-19T23:51:52.607Z,34.60
2019-04-19T23:54:27.595Z,34.70
2019-04-19T23:57:04.380Z,34.70
2019-04-19T23:59:26.147Z,34.80
